sensor_id;sensor_type;location;lat;lon;timestamp;pressure;altitude;pressure_sealevel;temperature;humidity
49835;BME280;35729;52.090;13.162;2023-06-19T00:00:21;100767.53;;;18.57;61.90
49835;BME280;35729;52.090;13.162;2023-06-19T00:02:49;100764.09;;;18.55;62.09
49835;BME280;35729;52.090;13.162;2023-06-19T00:05:18;100771.31;;;18.53;62.30
49835;BME280;35729;52.090;13.162;2023-06-19T00:07:51;100772.34;;;18.50;62.13
49835;BME280;35729;52.090;13.162;2023-06-19T00:10:19;100768.06;;;18.48;62.30
49835;BME280;35729;52.090;13.162;2023-06-19T00:12:48;100762.91;;;18.45;62.24
49835;BME280;35729;52.090;13.162;2023-06-19T00:15:17;100763.84;;;18.44;62.70
49835;BME280;35729;52.090;13.162;2023-06-19T00:17:45;100763.09;;;18.42;62.89
49835;BME280;35729;52.090;13.162;2023-06-19T00:20:14;100761.34;;;18.40;63.08
49835;BME280;35729;52.090;13.162;2023-06-19T00:22:43;100757.91;;;18.38;62.85
49835;BME280;35729;52.090;13.162;2023-06-19T00:25:19;100761.59;;;18.36;62.97
49835;BME280;35729;52.090;13.162;2023-06-19T00:27:47;100759.97;;;18.33;62.91
49835;BME280;35729;52.090;13.162;2023-06-19T00:30:16;100765.47;;;18.30;63.13
49835;BME280;35729;52.090;13.162;2023-06-19T00:32:44;100773.56;;;18.27;63.36
49835;BME280;35729;52.090;13.162;2023-06-19T00:35:18;100771.09;;;18.24;63.31
49835;BME280;35729;52.090;13.162;2023-06-19T00:37:47;100775.72;;;18.20;63.34
49835;BME280;35729;52.090;13.162;2023-06-19T00:40:27;100775.09;;;18.15;63.65
49835;BME280;35729;52.090;13.162;2023-06-19T00:42:56;100770.81;;;18.13;64.10
49835;BME280;35729;52.090;13.162;2023-06-19T00:45:25;100770.03;;;18.11;64.16
49835;BME280;35729;52.090;13.162;2023-06-19T00:47:54;100769.25;;;18.09;64.39
49835;BME280;35729;52.090;13.162;2023-06-19T00:50:23;100766.59;;;18.09;64.04
49835;BME280;35729;52.090;13.162;2023-06-19T00:52:52;100757.00;;;18.06;64.35
49835;BME280;35729;52.090;13.162;2023-06-19T00:55:25;100757.94;;;18.05;64.59
49835;BME280;35729;52.090;13.162;2023-06-19T00:57:53;100759.72;;;18.04;64.43
49835;BME280;35729;52.090;13.162;2023-06-19T01:00:22;100758.03;;;18.03;64.48
49835;BME280;35729;52.090;13.162;2023-06-19T01:02:51;100753.66;;;18.02;64.77
49835;BME280;35729;52.090;13.162;2023-06-19T01:05:19;100757.16;;;18.03;64.67
49835;BME280;35729;52.090;13.162;2023-06-19T01:07:54;100757.25;;;18.01;64.66
49835;BME280;35729;52.090;13.162;2023-06-19T01:10:40;100757.34;;;18.00;64.70
49835;BME280;35729;52.090;13.162;2023-06-19T01:13:16;100756.63;;;17.96;64.87
49835;BME280;35729;52.090;13.162;2023-06-19T01:15:46;100759.38;;;17.95;65.09
49835;BME280;35729;52.090;13.162;2023-06-19T01:18:23;100753.19;;;17.94;65.26
49835;BME280;35729;52.090;13.162;2023-06-19T01:21:09;100749.81;;;17.90;65.16
49835;BME280;35729;52.090;13.162;2023-06-19T01:23:40;100741.16;;;17.87;65.16
49835;BME280;35729;52.090;13.162;2023-06-19T01:26:10;100743.03;;;17.85;65.09
49835;BME280;35729;52.090;13.162;2023-06-19T01:28:40;100745.69;;;17.85;65.48
49835;BME280;35729;52.090;13.162;2023-06-19T01:31:11;100739.59;;;17.83;65.56
49835;BME280;35729;52.090;13.162;2023-06-19T01:33:42;100738.75;;;17.82;65.68
49835;BME280;35729;52.090;13.162;2023-06-19T01:36:13;100732.56;;;17.82;65.90
49835;BME280;35729;52.090;13.162;2023-06-19T01:38:45;100721.94;;;17.82;65.59
49835;BME280;35729;52.090;13.162;2023-06-19T01:41:16;100724.53;;;17.83;65.74
49835;BME280;35729;52.090;13.162;2023-06-19T01:43:46;100719.28;;;17.82;65.84
49835;BME280;35729;52.090;13.162;2023-06-19T01:46:14;100715.72;;;17.83;65.67
49835;BME280;35729;52.090;13.162;2023-06-19T01:48:43;100708.69;;;17.82;65.70
49835;BME280;35729;52.090;13.162;2023-06-19T01:51:11;100712.22;;;17.82;66.00
49835;BME280;35729;52.090;13.162;2023-06-19T01:53:40;100714.94;;;17.81;66.13
49835;BME280;35729;52.090;13.162;2023-06-19T01:56:11;100710.56;;;17.80;65.88
49835;BME280;35729;52.090;13.162;2023-06-19T01:58:39;100704.38;;;17.79;65.94
49835;BME280;35729;52.090;13.162;2023-06-19T02:01:08;100707.03;;;17.79;65.76
49835;BME280;35729;52.090;13.162;2023-06-19T02:03:36;100705.34;;;17.78;66.13
49835;BME280;35729;52.090;13.162;2023-06-19T02:06:05;100705.34;;;17.78;66.34
49835;BME280;35729;52.090;13.162;2023-06-19T02:08:33;100701.91;;;17.76;66.29
49835;BME280;35729;52.090;13.162;2023-06-19T02:11:01;100694.09;;;17.73;65.98
49835;BME280;35729;52.090;13.162;2023-06-19T02:13:32;100691.53;;;17.71;66.20
49835;BME280;35729;52.090;13.162;2023-06-19T02:16:01;100690.78;;;17.69;66.29
49835;BME280;35729;52.090;13.162;2023-06-19T02:18:29;100687.34;;;17.67;66.30
49835;BME280;35729;52.090;13.162;2023-06-19T02:20:58;100691.00;;;17.65;66.68
49835;BME280;35729;52.090;13.162;2023-06-19T02:23:26;100691.09;;;17.63;66.63
49835;BME280;35729;52.090;13.162;2023-06-19T02:25:55;100687.66;;;17.61;66.72
49835;BME280;35729;52.090;13.162;2023-06-19T02:28:23;100680.78;;;17.57;67.33
49835;BME280;35729;52.090;13.162;2023-06-19T02:30:55;100687.22;;;17.53;67.33
49835;BME280;35729;52.090;13.162;2023-06-19T02:33:23;100683.84;;;17.49;67.49
49835;BME280;35729;52.090;13.162;2023-06-19T02:35:52;100686.56;;;17.48;67.59
49835;BME280;35729;52.090;13.162;2023-06-19T02:38:24;100685.00;;;17.43;67.80
49835;BME280;35729;52.090;13.162;2023-06-19T02:40:55;100689.59;;;17.40;68.01
49835;BME280;35729;52.090;13.162;2023-06-19T02:43:23;100687.22;;;17.35;68.04
49835;BME280;35729;52.090;13.162;2023-06-19T02:45:51;100690.00;;;17.32;68.09
49835;BME280;35729;52.090;13.162;2023-06-19T02:48:22;100684.00;;;17.29;68.26
49835;BME280;35729;52.090;13.162;2023-06-19T02:50:51;100684.31;;;17.22;68.38
49835;BME280;35729;52.090;13.162;2023-06-19T02:53:19;100694.22;;;17.19;68.94
49835;BME280;35729;52.090;13.162;2023-06-19T02:55:48;100686.41;;;17.16;68.70
49835;BME280;35729;52.090;13.162;2023-06-19T02:58:16;100687.44;;;17.13;69.19
49835;BME280;35729;52.090;13.162;2023-06-19T03:00:46;100685.72;;;17.12;69.11
49835;BME280;35729;52.090;13.162;2023-06-19T03:03:14;100692.81;;;17.12;69.30
49835;BME280;35729;52.090;13.162;2023-06-19T03:05:45;100684.25;;;17.06;69.17
49835;BME280;35729;52.090;13.162;2023-06-19T03:08:14;100691.41;;;17.04;69.22
49835;BME280;35729;52.090;13.162;2023-06-19T03:10:42;100694.22;;;17.01;69.33
49835;BME280;35729;52.090;13.162;2023-06-19T03:13:10;100690.78;;;16.99;69.78
49835;BME280;35729;52.090;13.162;2023-06-19T03:15:39;100690.78;;;16.99;69.98
49835;BME280;35729;52.090;13.162;2023-06-19T03:18:07;100687.19;;;17.00;70.16
49835;BME280;35729;52.090;13.162;2023-06-19T03:20:36;100688.91;;;17.01;69.83
49835;BME280;35729;52.090;13.162;2023-06-19T03:23:07;100689.75;;;17.02;69.93
49835;BME280;35729;52.090;13.162;2023-06-19T03:25:35;100686.09;;;17.04;70.08
49835;BME280;35729;52.090;13.162;2023-06-19T03:28:08;100686.97;;;17.05;70.02
49835;BME280;35729;52.090;13.162;2023-06-19T03:30:36;100686.88;;;17.06;70.10
49835;BME280;35729;52.090;13.162;2023-06-19T03:33:05;100684.16;;;17.08;69.64
49835;BME280;35729;52.090;13.162;2023-06-19T03:35:33;100686.72;;;17.09;69.50
49835;BME280;35729;52.090;13.162;2023-06-19T03:38:26;100685.78;;;17.10;69.55
49835;BME280;35729;52.090;13.162;2023-06-19T03:40:55;100696.25;;;17.14;69.50
49835;BME280;35729;52.090;13.162;2023-06-19T03:43:23;100694.38;;;17.16;69.82
49835;BME280;35729;52.090;13.162;2023-06-19T03:45:51;100694.28;;;17.17;69.83
49835;BME280;35729;52.090;13.162;2023-06-19T03:48:20;100691.41;;;17.22;69.72
49835;BME280;35729;52.090;13.162;2023-06-19T03:50:48;100679.88;;;17.23;69.79
49835;BME280;35729;52.090;13.162;2023-06-19T03:53:17;100670.91;;;17.25;69.52
49835;BME280;35729;52.090;13.162;2023-06-19T03:55:48;100666.44;;;17.26;69.34
49835;BME280;35729;52.090;13.162;2023-06-19T03:58:16;100666.44;;;17.26;69.13
49835;BME280;35729;52.090;13.162;2023-06-19T04:00:45;100676.91;;;17.29;69.09
49835;BME280;35729;52.090;13.162;2023-06-19T04:03:13;100673.34;;;17.30;69.16
49835;BME280;35729;52.090;13.162;2023-06-19T04:05:41;100675.81;;;17.33;69.22
49835;BME280;35729;52.090;13.162;2023-06-19T04:08:10;100676.59;;;17.35;68.93
49835;BME280;35729;52.090;13.162;2023-06-19T04:10:38;100676.44;;;17.38;69.14
49835;BME280;35729;52.090;13.162;2023-06-19T04:13:09;100692.13;;;17.43;68.97
49835;BME280;35729;52.090;13.162;2023-06-19T04:15:38;100684.88;;;17.47;68.73
49835;BME280;35729;52.090;13.162;2023-06-19T04:18:09;100681.13;;;17.51;68.85
49835;BME280;35729;52.090;13.162;2023-06-19T04:20:44;100681.81;;;17.54;68.55
49835;BME280;35729;52.090;13.162;2023-06-19T04:23:13;100685.94;;;17.60;68.17
49835;BME280;35729;52.090;13.162;2023-06-19T04:25:41;100688.25;;;17.66;68.47
49835;BME280;35729;52.090;13.162;2023-06-19T04:28:12;100698.56;;;17.72;68.07
49835;BME280;35729;52.090;13.162;2023-06-19T04:30:41;100695.59;;;17.79;67.61
49835;BME280;35729;52.090;13.162;2023-06-19T04:33:09;100696.09;;;17.85;67.71
49835;BME280;35729;52.090;13.162;2023-06-19T04:35:38;100702.13;;;17.89;67.65
49835;BME280;35729;52.090;13.162;2023-06-19T04:38:08;100701.81;;;17.95;67.35
49835;BME280;35729;52.090;13.162;2023-06-19T04:40:40;100702.44;;;18.00;67.33
49835;BME280;35729;52.090;13.162;2023-06-19T04:43:08;100712.81;;;18.05;66.86
49835;BME280;35729;52.090;13.162;2023-06-19T04:45:40;100708.19;;;18.09;66.87
49835;BME280;35729;52.090;13.162;2023-06-19T04:48:09;100716.78;;;18.14;66.48
49835;BME280;35729;52.090;13.162;2023-06-19T04:50:37;100713.84;;;18.18;66.80
49835;BME280;35729;52.090;13.162;2023-06-19T04:53:06;100711.81;;;18.23;66.30
49835;BME280;35729;52.090;13.162;2023-06-19T04:55:34;100712.50;;;18.27;65.84
49835;BME280;35729;52.090;13.162;2023-06-19T04:58:03;100715.75;;;18.32;65.89
49835;BME280;35729;52.090;13.162;2023-06-19T05:00:31;100722.53;;;18.38;66.17
49835;BME280;35729;52.090;13.162;2023-06-19T05:03:02;100722.31;;;18.43;65.61
49835;BME280;35729;52.090;13.162;2023-06-19T05:05:31;100709.63;;;18.48;65.76
49835;BME280;35729;52.090;13.162;2023-06-19T05:08:00;100720.84;;;18.53;65.67
49835;BME280;35729;52.090;13.162;2023-06-19T05:10:28;100715.25;;;18.58;65.53
49835;BME280;35729;52.090;13.162;2023-06-19T05:12:56;100714.16;;;18.62;65.47
49835;BME280;35729;52.090;13.162;2023-06-19T05:15:25;100707.72;;;18.66;65.21
49835;BME280;35729;52.090;13.162;2023-06-19T05:17:53;100707.53;;;18.69;65.32
49835;BME280;35729;52.090;13.162;2023-06-19T05:20:24;100702.06;;;18.72;65.17
49835;BME280;35729;52.090;13.162;2023-06-19T05:22:59;100703.50;;;18.78;65.15
49835;BME280;35729;52.090;13.162;2023-06-19T05:25:28;100690.81;;;18.83;64.72
49835;BME280;35729;52.090;13.162;2023-06-19T05:27:56;100692.38;;;18.87;64.89
49835;BME280;35729;52.090;13.162;2023-06-19T05:30:24;100693.84;;;18.93;64.69
49835;BME280;35729;52.090;13.162;2023-06-19T05:32:53;100692.69;;;18.97;64.79
49835;BME280;35729;52.090;13.162;2023-06-19T05:35:24;100701.19;;;19.03;64.88
49835;BME280;35729;52.090;13.162;2023-06-19T05:37:52;100698.19;;;19.10;64.50
49835;BME280;35729;52.090;13.162;2023-06-19T05:40:21;100702.19;;;19.17;65.09
49835;BME280;35729;52.090;13.162;2023-06-19T05:42:49;100704.47;;;19.23;64.88
49835;BME280;35729;52.090;13.162;2023-06-19T05:45:18;100705.00;;;19.30;64.85
49835;BME280;35729;52.090;13.162;2023-06-19T05:47:46;100708.16;;;19.36;64.68
49835;BME280;35729;52.090;13.162;2023-06-19T05:50:15;100706.91;;;19.42;64.16
49835;BME280;35729;52.090;13.162;2023-06-19T05:52:46;100712.75;;;19.49;64.50
49835;BME280;35729;52.090;13.162;2023-06-19T05:55:14;100706.28;;;19.53;63.76
49835;BME280;35729;52.090;13.162;2023-06-19T05:57:43;100695.28;;;19.59;63.87
49835;BME280;35729;52.090;13.162;2023-06-19T06:00:13;100691.47;;;19.63;63.91
49835;BME280;35729;52.090;13.162;2023-06-19T06:02:41;100693.66;;;19.71;63.80
49835;BME280;35729;52.090;13.162;2023-06-19T06:05:10;100695.09;;;19.77;63.58
49835;BME280;35729;52.090;13.162;2023-06-19T06:07:38;100695.59;;;19.83;63.86
49835;BME280;35729;52.090;13.162;2023-06-19T06:10:10;100703.22;;;19.90;63.92
49835;BME280;35729;52.090;13.162;2023-06-19T06:12:39;100715.09;;;19.98;63.38
49835;BME280;35729;52.090;13.162;2023-06-19T06:15:08;100709.41;;;20.05;63.59
49835;BME280;35729;52.090;13.162;2023-06-19T06:17:36;100699.13;;;20.13;63.44
49835;BME280;35729;52.090;13.162;2023-06-19T06:20:06;100693.31;;;20.21;63.68
49835;BME280;35729;52.090;13.162;2023-06-19T06:22:37;100699.97;;;20.28;63.12
49835;BME280;35729;52.090;13.162;2023-06-19T06:25:09;100693.19;;;20.37;63.08
49835;BME280;35729;52.090;13.162;2023-06-19T06:27:38;100698.91;;;20.45;62.72
49835;BME280;35729;52.090;13.162;2023-06-19T06:30:08;100711.63;;;20.54;62.89
49835;BME280;35729;52.090;13.162;2023-06-19T06:32:37;100708.56;;;20.60;62.47
49835;BME280;35729;52.090;13.162;2023-06-19T06:35:06;100710.84;;;20.66;62.83
49835;BME280;35729;52.090;13.162;2023-06-19T06:37:35;100713.22;;;20.71;62.74
49835;BME280;35729;52.090;13.162;2023-06-19T06:40:05;100727.03;;;20.78;62.39
49835;BME280;35729;52.090;13.162;2023-06-19T06:42:37;100725.66;;;20.85;62.18
49835;BME280;35729;52.090;13.162;2023-06-19T06:45:06;100732.41;;;20.91;62.36
49835;BME280;35729;52.090;13.162;2023-06-19T06:47:35;100731.13;;;20.96;62.19
49835;BME280;35729;52.090;13.162;2023-06-19T06:50:06;100741.41;;;21.03;62.47
49835;BME280;35729;52.090;13.162;2023-06-19T06:52:35;100740.88;;;21.10;62.03
49835;BME280;35729;52.090;13.162;2023-06-19T06:55:04;100744.88;;;21.18;61.79
49835;BME280;35729;52.090;13.162;2023-06-19T06:57:42;100733.69;;;21.25;61.82
49835;BME280;35729;52.090;13.162;2023-06-19T07:00:12;100736.47;;;21.37;61.20
49835;BME280;35729;52.090;13.162;2023-06-19T07:02:40;100734.81;;;21.48;61.07
49835;BME280;35729;52.090;13.162;2023-06-19T07:05:10;100733.16;;;21.60;60.93
49835;BME280;35729;52.090;13.162;2023-06-19T07:07:38;100734.97;;;21.73;60.35
49835;BME280;35729;52.090;13.162;2023-06-19T07:10:08;100742.16;;;21.85;60.20
49835;BME280;35729;52.090;13.162;2023-06-19T07:12:47;100738.81;;;21.94;59.96
49835;BME280;35729;52.090;13.162;2023-06-19T07:15:16;100737.22;;;22.05;59.23
49835;BME280;35729;52.090;13.162;2023-06-19T07:17:45;100748.94;;;22.15;59.02
49835;BME280;35729;52.090;13.162;2023-06-19T07:20:13;100742.97;;;22.24;59.15
49835;BME280;35729;52.090;13.162;2023-06-19T07:22:43;100744.13;;;22.33;58.87
49835;BME280;35729;52.090;13.162;2023-06-19T07:25:12;100738.28;;;22.41;58.60
49835;BME280;35729;52.090;13.162;2023-06-19T07:27:41;100748.41;;;22.49;58.43
49835;BME280;35729;52.090;13.162;2023-06-19T07:30:12;100749.56;;;22.57;58.54
49835;BME280;35729;52.090;13.162;2023-06-19T07:32:41;100752.53;;;22.66;58.23
49835;BME280;35729;52.090;13.162;2023-06-19T07:35:09;100755.50;;;22.74;57.65
49835;BME280;35729;52.090;13.162;2023-06-19T07:37:38;100752.38;;;22.80;57.40
49835;BME280;35729;52.090;13.162;2023-06-19T07:40:07;100750.94;;;22.87;57.06
49835;BME280;35729;52.090;13.162;2023-06-19T07:42:36;100750.41;;;22.95;56.74
49835;BME280;35729;52.090;13.162;2023-06-19T07:45:05;100752.28;;;23.06;56.80
49835;BME280;35729;52.090;13.162;2023-06-19T07:47:37;100747.88;;;23.18;56.29
49835;BME280;35729;52.090;13.162;2023-06-19T07:50:06;100742.56;;;23.29;56.49
49835;BME280;35729;52.090;13.162;2023-06-19T07:52:35;100739.81;;;23.42;55.82
49835;BME280;35729;52.090;13.162;2023-06-19T07:55:04;100745.06;;;23.55;56.04
49835;BME280;35729;52.090;13.162;2023-06-19T07:57:32;100749.38;;;23.69;55.41
49835;BME280;35729;52.090;13.162;2023-06-19T08:00:02;100744.88;;;23.81;55.33
49835;BME280;35729;52.090;13.162;2023-06-19T08:02:38;100728.00;;;23.91;55.08
49835;BME280;35729;52.090;13.162;2023-06-19T08:05:08;100726.28;;;24.02;54.76
49835;BME280;35729;52.090;13.162;2023-06-19T08:07:37;100722.78;;;24.13;54.69
49835;BME280;35729;52.090;13.162;2023-06-19T08:10:06;100719.22;;;24.23;54.15
49835;BME280;35729;52.090;13.162;2023-06-19T08:12:35;100726.41;;;24.34;53.35
49835;BME280;35729;52.090;13.162;2023-06-19T08:15:04;100726.53;;;24.44;52.96
49835;BME280;35729;52.090;13.162;2023-06-19T08:17:32;100728.47;;;24.53;52.02
49835;BME280;35729;52.090;13.162;2023-06-19T08:20:04;100731.34;;;24.62;51.50
49835;BME280;35729;52.090;13.162;2023-06-19T08:22:34;100728.94;;;24.70;50.58
49835;BME280;35729;52.090;13.162;2023-06-19T08:25:03;100729.19;;;24.78;50.26
49835;BME280;35729;52.090;13.162;2023-06-19T08:27:32;100728.53;;;24.86;49.59
49835;BME280;35729;52.090;13.162;2023-06-19T08:30:00;100729.72;;;24.93;48.99
49835;BME280;35729;52.090;13.162;2023-06-19T08:32:28;100725.69;;;24.99;48.83
49835;BME280;35729;52.090;13.162;2023-06-19T08:34:57;100728.56;;;25.07;48.38
49835;BME280;35729;52.090;13.162;2023-06-19T08:37:28;100735.97;;;25.15;47.48
49835;BME280;35729;52.090;13.162;2023-06-19T08:39:56;100740.00;;;25.20;47.18
49835;BME280;35729;52.090;13.162;2023-06-19T08:42:25;100734.94;;;25.27;47.28
49835;BME280;35729;52.090;13.162;2023-06-19T08:44:53;100743.47;;;25.32;47.21
49835;BME280;35729;52.090;13.162;2023-06-19T08:47:22;100745.81;;;25.37;46.53
49835;BME280;35729;52.090;13.162;2023-06-19T08:49:53;100753.03;;;25.36;46.76
49835;BME280;35729;52.090;13.162;2023-06-19T08:52:21;100745.66;;;25.39;46.39
49835;BME280;35729;52.090;13.162;2023-06-19T08:54:53;100743.84;;;25.39;46.62
49835;BME280;35729;52.090;13.162;2023-06-19T08:57:21;100750.19;;;25.38;46.54
49835;BME280;35729;52.090;13.162;2023-06-19T09:00:00;100740.44;;;25.37;46.64
49835;BME280;35729;52.090;13.162;2023-06-19T09:02:38;100749.47;;;25.36;46.31
49835;BME280;35729;52.090;13.162;2023-06-19T09:05:12;100748.59;;;25.35;46.37
49835;BME280;35729;52.090;13.162;2023-06-19T09:07:41;100743.38;;;25.34;46.27
49835;BME280;35729;52.090;13.162;2023-06-19T09:10:18;100747.03;;;25.33;46.03
49835;BME280;35729;52.090;13.162;2023-06-19T09:12:57;100748.84;;;25.32;45.57
49835;BME280;35729;52.090;13.162;2023-06-19T09:15:30;100748.00;;;25.32;45.85
49835;BME280;35729;52.090;13.162;2023-06-19T09:18:01;100748.00;;;25.32;45.87
49835;BME280;35729;52.090;13.162;2023-06-19T09:20:30;100750.69;;;25.32;45.62
49835;BME280;35729;52.090;13.162;2023-06-19T09:23:10;100750.81;;;25.30;45.45
49835;BME280;35729;52.090;13.162;2023-06-19T09:25:49;100751.06;;;25.27;45.59
49835;BME280;35729;52.090;13.162;2023-06-19T09:28:20;100750.34;;;25.25;45.00
49835;BME280;35729;52.090;13.162;2023-06-19T09:30:53;100745.22;;;25.22;45.40
49835;BME280;35729;52.090;13.162;2023-06-19T09:33:22;100747.22;;;25.20;45.13
49835;BME280;35729;52.090;13.162;2023-06-19T09:35:50;100739.41;;;25.17;45.43
49835;BME280;35729;52.090;13.162;2023-06-19T09:38:21;100739.66;;;25.14;45.46
49835;BME280;35729;52.090;13.162;2023-06-19T09:40:52;100740.78;;;25.11;45.46
49835;BME280;35729;52.090;13.162;2023-06-19T09:43:24;100737.22;;;25.11;45.48
49835;BME280;35729;52.090;13.162;2023-06-19T09:45:55;100726.63;;;25.09;46.17
49835;BME280;35729;52.090;13.162;2023-06-19T09:48:27;100726.63;;;25.09;45.90
49835;BME280;35729;52.090;13.162;2023-06-19T09:51:00;100721.25;;;25.09;46.37
49835;BME280;35729;52.090;13.162;2023-06-19T09:53:29;100721.84;;;25.13;46.14
49835;BME280;35729;52.090;13.162;2023-06-19T09:56:01;100724.25;;;25.16;45.87
49835;BME280;35729;52.090;13.162;2023-06-19T09:58:30;100707.78;;;25.20;46.02
49835;BME280;35729;52.090;13.162;2023-06-19T10:01:00;100708.97;;;25.28;46.04
49835;BME280;35729;52.090;13.162;2023-06-19T10:03:31;100702.84;;;25.37;45.45
49835;BME280;35729;52.090;13.162;2023-06-19T10:06:00;100695.69;;;25.47;44.96
49835;BME280;35729;52.090;13.162;2023-06-19T10:08:30;100691.22;;;25.58;44.97
49835;BME280;35729;52.090;13.162;2023-06-19T10:11:01;100695.69;;;25.68;44.92
49835;BME280;35729;52.090;13.162;2023-06-19T10:13:33;100700.84;;;25.81;44.82
49835;BME280;35729;52.090;13.162;2023-06-19T10:16:04;100701.47;;;25.95;44.59
49835;BME280;35729;52.090;13.162;2023-06-19T10:18:43;100699.56;;;26.07;43.66
49835;BME280;35729;52.090;13.162;2023-06-19T10:21:16;100697.66;;;26.18;43.66
49835;BME280;35729;52.090;13.162;2023-06-19T10:23:53;100693.16;;;26.29;42.57
49835;BME280;35729;52.090;13.162;2023-06-19T10:26:33;100685.22;;;26.37;42.78
49835;BME280;35729;52.090;13.162;2023-06-19T10:29:13;100686.53;;;26.43;43.06
49835;BME280;35729;52.090;13.162;2023-06-19T10:31:42;100695.88;;;26.48;43.11
49835;BME280;35729;52.090;13.162;2023-06-19T10:34:10;100697.75;;;26.58;43.21
49835;BME280;35729;52.090;13.162;2023-06-19T10:36:40;100694.47;;;26.64;42.22
49835;BME280;35729;52.090;13.162;2023-06-19T10:39:08;100696.91;;;26.67;42.44
49835;BME280;35729;52.090;13.162;2023-06-19T10:41:42;100702.00;;;26.70;42.21
49835;BME280;35729;52.090;13.162;2023-06-19T10:44:10;100691.84;;;26.74;42.60
49835;BME280;35729;52.090;13.162;2023-06-19T10:46:40;100697.53;;;26.80;42.36
49835;BME280;35729;52.090;13.162;2023-06-19T10:49:09;100692.84;;;26.92;42.48
49835;BME280;35729;52.090;13.162;2023-06-19T10:51:40;100698.66;;;27.07;41.98
49835;BME280;35729;52.090;13.162;2023-06-19T10:54:09;100697.53;;;27.20;41.97
49835;BME280;35729;52.090;13.162;2023-06-19T10:56:37;100684.91;;;27.30;41.82
49835;BME280;35729;52.090;13.162;2023-06-19T10:59:10;100692.84;;;27.41;41.04
49835;BME280;35729;52.090;13.162;2023-06-19T11:01:40;100688.56;;;27.48;40.84
49835;BME280;35729;52.090;13.162;2023-06-19T11:04:11;100684.59;;;27.53;40.52
49835;BME280;35729;52.090;13.162;2023-06-19T11:06:41;100671.38;;;27.59;40.56
49835;BME280;35729;52.090;13.162;2023-06-19T11:09:11;100667.41;;;27.63;39.87
49835;BME280;35729;52.090;13.162;2023-06-19T11:11:41;100671.50;;;27.68;39.74
49835;BME280;35729;52.090;13.162;2023-06-19T11:14:14;100677.44;;;27.71;40.22
49835;BME280;35729;52.090;13.162;2023-06-19T11:16:45;100675.31;;;27.75;40.09
49835;BME280;35729;52.090;13.162;2023-06-19T11:19:21;100674.88;;;27.79;40.04
49835;BME280;35729;52.090;13.162;2023-06-19T11:21:51;100674.56;;;27.83;39.74
49835;BME280;35729;52.090;13.162;2023-06-19T11:24:22;100672.41;;;27.86;39.42
49835;BME280;35729;52.090;13.162;2023-06-19T11:26:51;100667.59;;;27.90;39.47
49835;BME280;35729;52.090;13.162;2023-06-19T11:29:24;100671.81;;;27.92;39.36
49835;BME280;35729;52.090;13.162;2023-06-19T11:32:04;100670.41;;;27.98;39.17
49835;BME280;35729;52.090;13.162;2023-06-19T11:34:33;100668.81;;;28.05;38.88
49835;BME280;35729;52.090;13.162;2023-06-19T11:37:02;100670.63;;;28.15;38.76
49835;BME280;35729;52.090;13.162;2023-06-19T11:39:31;100675.13;;;28.24;38.71
49835;BME280;35729;52.090;13.162;2023-06-19T11:42:00;100671.66;;;28.32;38.32
49835;BME280;35729;52.090;13.162;2023-06-19T11:44:31;100673.97;;;28.44;38.47
49835;BME280;35729;52.090;13.162;2023-06-19T11:47:00;100663.53;;;28.59;38.18
49835;BME280;35729;52.090;13.162;2023-06-19T11:49:34;100665.41;;;28.77;38.07
49835;BME280;35729;52.090;13.162;2023-06-19T11:52:04;100664.72;;;28.93;37.45
49835;BME280;35729;52.090;13.162;2023-06-19T11:54:32;100666.03;;;29.07;37.43
49835;BME280;35729;52.090;13.162;2023-06-19T11:57:01;100654.47;;;29.23;37.12
49835;BME280;35729;52.090;13.162;2023-06-19T11:59:33;100650.91;;;29.40;36.63
49835;BME280;35729;52.090;13.162;2023-06-19T12:02:01;100655.56;;;29.56;35.97
49835;BME280;35729;52.090;13.162;2023-06-19T12:04:30;100651.97;;;29.74;35.65
49835;BME280;35729;52.090;13.162;2023-06-19T12:06:59;100652.91;;;29.91;35.37
49835;BME280;35729;52.090;13.162;2023-06-19T12:09:29;100662.13;;;30.06;34.80
49835;BME280;35729;52.090;13.162;2023-06-19T12:11:58;100655.22;;;30.20;34.49
49835;BME280;35729;52.090;13.162;2023-06-19T12:14:26;100653.53;;;30.28;34.07
49835;BME280;35729;52.090;13.162;2023-06-19T12:16:57;100649.84;;;30.37;34.10
49835;BME280;35729;52.090;13.162;2023-06-19T12:19:26;100641.47;;;30.48;33.48
49835;BME280;35729;52.090;13.162;2023-06-19T12:21:54;100644.19;;;30.65;33.26
49835;BME280;35729;52.090;13.162;2023-06-19T12:24:24;100640.47;;;30.82;33.37
49835;BME280;35729;52.090;13.162;2023-06-19T12:26:52;100643.19;;;30.99;32.96
49835;BME280;35729;52.090;13.162;2023-06-19T12:29:21;100635.41;;;31.12;32.24
49835;BME280;35729;52.090;13.162;2023-06-19T12:31:49;100625.75;;;31.18;31.61
49835;BME280;35729;52.090;13.162;2023-06-19T12:34:20;100637.94;;;31.22;31.78
49835;BME280;35729;52.090;13.162;2023-06-19T12:36:50;100631.50;;;31.23;31.69
49835;BME280;35729;52.090;13.162;2023-06-19T12:39:19;100629.81;;;31.22;31.19
49835;BME280;35729;52.090;13.162;2023-06-19T12:41:47;100626.25;;;31.22;31.51
49835;BME280;35729;52.090;13.162;2023-06-19T12:44:16;100628.97;;;31.22;30.76
49835;BME280;35729;52.090;13.162;2023-06-19T12:46:44;100632.00;;;31.18;31.15
49835;BME280;35729;52.090;13.162;2023-06-19T12:49:13;100641.50;;;31.14;30.48
49835;BME280;35729;52.090;13.162;2023-06-19T12:51:44;100633.22;;;31.08;30.24
49835;BME280;35729;52.090;13.162;2023-06-19T12:54:16;100634.69;;;30.94;30.45